Time;durP1;ratioP1;P1;durP2;ratioP2;P2;SDS_P1;SDS_P2;PMS_P1;PMS_P2;Temp;Humidity;BMP_temperature;BMP_pressure;BME280_temperature;BME280_humidity;BME280_pressure;Samples;Min_cycle;Max_cycle;Signal;HPM_P1;HPM_P2
2023/01/11 00:01:59;;;;;;;1.40;0.80;;;;;;;5.27;92.60;152715.03;4992327;28;20851;-83
2023/01/11 00:04:46;;;;;;;3.00;1.33;;;;;;;5.33;91.91;152731.78;4984083;28;20451;-83
2023/01/11 00:07:31;;;;;;;1.57;0.93;;;;;;;5.31;92.07;152726.63;4998530;28;20551;-83
2023/01/11 00:10:17;;;;;;;1.83;0.87;;;;;;;5.40;91.95;152748.56;4972574;28;20878;-83
2023/01/11 00:13:03;;;;;;;1.17;0.67;;;;;;;5.38;92.66;152743.34;4979537;28;20437;-83
2023/01/11 00:15:49;;;;;;;3.80;0.87;;;;;;;5.37;92.07;152740.81;4990453;28;20465;-83
2023/01/11 00:18:36;;;;;;;1.47;0.90;;;;;;;5.39;93.58;152745.94;4972597;28;20448;-84
2023/01/11 00:21:21;;;;;;;1.40;0.70;;;;;;;5.47;92.74;152767.88;5004359;28;20471;-84
2023/01/11 00:24:07;;;;;;;2.10;1.03;;;;;;;5.42;93.98;152755.00;4988297;28;20452;-83
2023/01/11 00:26:52;;;;;;;1.30;0.87;;;;;;;5.50;94.84;152774.31;4998799;28;20476;-83
2023/01/11 00:29:37;;;;;;;2.70;0.80;;;;;;;5.42;95.39;152753.69;5001027;28;20451;-83
2023/01/11 00:32:23;;;;;;;1.47;0.97;;;;;;;5.44;95.62;152758.84;4988840;28;20524;-83
2023/01/11 00:35:10;;;;;;;1.47;0.60;;;;;;;5.53;96.31;152782.06;4997934;28;20975;-83
2023/01/11 00:37:55;;;;;;;1.60;0.90;;;;;;;5.55;96.36;152787.22;4995380;28;20454;-83
2023/01/11 00:40:40;;;;;;;2.07;1.00;;;;;;;5.51;97.46;152776.88;4994801;28;20452;-83
2023/01/11 00:49:31;;;;;;;1.20;0.73;;;;;;;5.59;99.00;152796.25;4985744;28;20516;-83
2023/01/11 00:52:18;;;;;;;1.57;0.70;;;;;;;5.62;98.50;152803.97;4989100;28;20788;-83
2023/01/11 00:55:04;;;;;;;1.43;0.80;;;;;;;5.67;98.96;152818.16;4992886;28;20456;-83
2023/01/11 00:57:50;;;;;;;0.77;0.50;;;;;;;5.68;97.29;152820.75;5006977;28;20924;-83
2023/01/11 01:00:36;;;;;;;1.40;0.80;;;;;;;5.74;98.65;152836.22;4999389;28;20456;-83
2023/01/11 01:03:21;;;;;;;2.50;0.80;;;;;;;5.79;98.36;152849.13;4984515;28;20433;-83
2023/01/11 01:06:06;;;;;;;1.23;0.83;;;;;;;5.82;98.39;152855.56;4985971;28;20442;-83
2023/01/11 01:08:53;;;;;;;2.03;0.77;;;;;;;5.86;97.93;152867.22;4979920;28;20480;-77
2023/01/11 01:11:38;;;;;;;2.10;0.70;;;;;;;5.92;98.70;152882.69;4986048;28;20786;-77
2023/01/11 01:14:27;;;;;;;1.77;1.03;;;;;;;5.91;99.15;152878.81;4991426;28;20597;-77
2023/01/11 01:17:13;;;;;;;1.00;0.70;;;;;;;5.90;100.00;152877.56;4991692;28;20456;-78
2023/01/11 01:19:58;;;;;;;1.07;0.60;;;;;;;5.94;99.02;152887.84;4998939;28;20444;-77
2023/01/11 01:22:44;;;;;;;1.10;0.70;;;;;;;5.85;100.00;152864.63;4989859;28;20862;-77
2023/01/11 01:25:30;;;;;;;1.23;0.70;;;;;;;5.88;99.99;152872.34;5021793;28;20449;-77
2023/01/11 01:28:17;;;;;;;1.57;0.70;;;;;;;5.87;100.00;152869.81;4989622;28;20997;-77
2023/01/11 01:31:03;;;;;;;1.00;0.80;;;;;;;5.97;100.00;152894.28;4993543;28;20461;-77
2023/01/11 01:33:48;;;;;;;1.67;0.63;;;;;;;5.92;100.00;152882.69;4993901;28;20500;-77
2023/01/11 01:36:34;;;;;;;1.50;0.70;;;;;;;5.88;100.00;152872.34;4988131;28;20456;-77
2023/01/11 01:39:19;;;;;;;1.33;0.70;;;;;;;5.82;100.00;152855.56;5007481;28;20449;-77
2023/01/11 01:42:06;;;;;;;1.40;0.50;;;;;;;5.85;100.00;152864.63;4991760;28;20506;-77
2023/01/11 01:45:05;;;;;;;1.03;0.70;;;;;;;5.90;100.00;152876.25;5009104;28;20456;-77
2023/01/11 01:47:53;;;;;;;1.20;0.50;;;;;;;5.95;100.00;152889.16;4985498;28;20577;-77
2023/01/11 01:50:43;;;;;;;1.73;0.70;;;;;;;5.97;100.00;152894.28;4987324;28;20458;-77
2023/01/11 01:53:34;;;;;;;1.57;0.90;;;;;;;5.94;100.00;152886.56;4975030;28;20430;-77
2023/01/11 01:56:24;;;;;;;1.47;0.60;;;;;;;5.88;100.00;152871.06;4996241;28;20440;-77
2023/01/11 01:59:13;;;;;;;1.30;0.60;;;;;;;5.82;100.00;152855.56;4989024;28;20454;-77
2023/01/11 02:01:58;;;;;;;1.27;0.80;;;;;;;5.90;100.00;152877.56;4982519;28;20466;-77
2023/01/11 02:04:44;;;;;;;3.93;0.87;;;;;;;5.93;100.00;152884.00;4995702;28;20456;-77
2023/01/11 02:07:32;;;;;;;0.90;0.57;;;;;;;5.88;100.00;152871.06;4984023;28;20521;-77
2023/01/11 02:10:19;;;;;;;1.00;0.60;;;;;;;5.87;100.00;152869.81;4989631;28;20771;-77
2023/01/11 02:13:06;;;;;;;1.43;0.50;;;;;;;5.85;100.00;152863.38;4991541;28;20441;-77
2023/01/11 02:16:06;;;;;;;1.33;0.60;;;;;;;5.88;100.00;152871.06;5001915;28;20964;-77
2023/01/11 02:18:51;;;;;;;1.60;0.50;;;;;;;5.85;100.00;152863.38;4991596;28;20571;-77
2023/01/11 02:21:52;;;;;;;1.00;0.60;;;;;;;5.93;100.00;152884.00;4992295;28;20480;-77
2023/01/11 02:25:05;;;;;;;1.00;0.60;;;;;;;5.96;100.00;152891.69;4991192;28;20521;-77
2023/01/11 02:27:58;;;;;;;1.33;0.50;;;;;;;6.03;100.00;152909.78;4990055;28;20982;-77
2023/01/11 02:30:50;;;;;;;1.80;0.97;;;;;;;6.04;100.00;152912.34;4993740;28;20455;-77
2023/01/11 02:33:39;;;;;;;2.13;0.90;;;;;;;6.09;100.00;152925.22;4986964;28;20493;-77
2023/01/11 02:36:31;;;;;;;1.20;0.63;;;;;;;6.11;100.00;152931.72;4999213;28;20444;-77
2023/01/11 02:39:21;;;;;;;2.00;0.67;;;;;;;6.08;100.00;152923.97;4988185;28;21036;-77
2023/01/11 02:45:29;;;;;;;1.20;0.50;;;;;;;6.09;100.00;152926.53;4973949;28;20477;-77
2023/01/11 02:48:19;;;;;;;1.50;0.60;;;;;;;6.11;100.00;152931.72;4982287;28;20612;-77
2023/01/11 02:51:07;;;;;;;2.80;1.23;;;;;;;6.17;100.00;152945.88;4995947;28;20536;-77
2023/01/11 02:53:55;;;;;;;1.10;0.40;;;;;;;6.16;100.00;152942.03;4995211;28;20430;-77
2023/01/11 02:56:42;;;;;;;0.90;0.60;;;;;;;6.16;100.00;152942.03;4990657;28;20444;-77
2023/01/11 02:59:30;;;;;;;1.10;0.57;;;;;;;6.16;100.00;152942.03;4994995;28;20855;-77
2023/01/11 03:02:16;;;;;;;0.90;0.50;;;;;;;6.26;100.00;152967.81;4989389;28;20500;-77
2023/01/11 03:05:02;;;;;;;0.77;0.50;;;;;;;6.33;100.00;152985.91;4987613;28;20444;-77
2023/01/11 03:07:55;;;;;;;3.40;0.83;;;;;;;6.38;100.00;153000.06;4996342;28;20971;-77
2023/01/11 03:10:48;;;;;;;0.80;0.50;;;;;;;6.42;100.00;153009.13;5015204;28;21053;-77
2023/01/11 03:13:52;;;;;;;1.10;0.67;;;;;;;6.45;100.00;153016.88;4988310;28;20436;-77
2023/01/11 03:16:40;;;;;;;0.80;0.40;;;;;;;6.49;100.00;153028.47;4994881;28;20449;-77
2023/01/11 03:19:32;;;;;;;1.00;0.37;;;;;;;6.49;100.00;153027.16;4992532;28;20441;-77
2023/01/11 03:22:24;;;;;;;1.20;0.37;;;;;;;6.48;100.00;153024.63;4989195;28;20464;-77
2023/01/11 03:25:16;;;;;;;1.00;0.40;;;;;;;6.50;100.00;153031.06;4999909;28;20515;-78
2023/01/11 03:28:06;;;;;;;0.70;0.37;;;;;;;6.53;100.00;153037.50;4972853;28;20790;-77
2023/01/11 03:30:57;;;;;;;1.57;0.70;;;;;;;6.58;100.00;153050.41;4999006;28;20930;-77
2023/01/11 03:33:48;;;;;;;0.90;0.50;;;;;;;6.59;100.00;153054.28;4995020;28;20437;-78
2023/01/11 03:36:38;;;;;;;1.40;0.40;;;;;;;6.54;100.00;153041.38;4995769;28;20781;-78
2023/01/11 03:39:27;;;;;;;1.10;0.40;;;;;;;6.59;100.00;153054.28;4998013;28;20491;-78
2023/01/11 03:42:15;;;;;;;0.93;0.40;;;;;;;6.59;100.00;153053.00;4990823;28;20523;-78
2023/01/11 03:45:01;;;;;;;1.00;0.60;;;;;;;6.58;100.00;153050.41;4989022;28;20947;-78
2023/01/11 03:47:46;;;;;;;0.83;0.43;;;;;;;6.52;100.00;153034.91;4992667;28;20426;-78
2023/01/11 03:50:33;;;;;;;1.10;0.37;;;;;;;6.52;100.00;153036.22;4986919;28;20802;-77
2023/01/11 03:53:21;;;;;;;1.00;0.30;;;;;;;6.60;100.00;153056.88;4995886;28;20444;-78
2023/01/11 03:56:10;;;;;;;1.20;0.67;;;;;;;6.70;100.00;153081.38;4994282;28;20518;-78
2023/01/11 03:58:55;;;;;;;0.80;0.40;;;;;;;6.62;100.00;153060.72;4994734;28;20425;-78
2023/01/11 04:01:40;;;;;;;0.83;0.40;;;;;;;6.57;100.00;153047.81;4996976;28;20443;-77
2023/01/11 04:04:26;;;;;;;0.80;0.40;;;;;;;6.58;100.00;153050.41;4991316;28;20551;-77
2023/01/11 04:07:11;;;;;;;1.17;0.50;;;;;;;6.65;100.00;153068.47;4999937;28;20424;-78
2023/01/11 04:09:58;;;;;;;1.10;0.40;;;;;;;6.63;100.00;153064.63;5001993;28;20468;-77
2023/01/11 04:12:46;;;;;;;1.00;0.40;;;;;;;6.63;100.00;153063.31;5003248;28;20936;-78
2023/01/11 04:15:33;;;;;;;0.80;0.40;;;;;;;6.58;100.00;153050.41;4980873;28;20557;-77
2023/01/11 04:18:18;;;;;;;1.00;0.50;;;;;;;6.55;100.00;153043.97;4991232;28;20479;-77
2023/01/11 04:21:04;;;;;;;0.80;0.30;;;;;;;6.56;100.00;153046.56;4996906;28;20454;-78
2023/01/11 04:23:50;;;;;;;0.83;0.50;;;;;;;6.51;100.00;153032.38;4996607;28;20976;-78
2023/01/11 04:26:37;;;;;;;0.80;0.30;;;;;;;6.59;100.00;153054.28;5016769;28;20492;-77
2023/01/11 04:29:22;;;;;;;0.80;0.40;;;;;;;6.58;100.00;153051.72;4994156;28;20448;-77
2023/01/11 04:32:07;;;;;;;0.90;0.40;;;;;;;6.59;100.00;153053.00;4995408;28;20425;-78
2023/01/11 04:34:53;;;;;;;1.07;0.30;;;;;;;6.62;100.00;153060.72;5006005;28;20732;-78
2023/01/11 04:37:38;;;;;;;0.80;0.40;;;;;;;6.62;100.00;153062.03;4991785;28;20452;-78
2023/01/11 04:40:24;;;;;;;0.70;0.30;;;;;;;6.63;100.00;153063.31;4988036;28;20905;-78
2023/01/11 04:43:10;;;;;;;0.70;0.40;;;;;;;6.59;100.00;153053.00;4997375;28;20456;-78
2023/01/11 04:45:58;;;;;;;1.80;0.43;;;;;;;6.60;100.00;153056.88;4991996;28;20452;-77
2023/01/11 04:48:43;;;;;;;0.70;0.30;;;;;;;6.64;100.00;153065.91;4987032;28;20638;-77
2023/01/11 04:51:29;;;;;;;0.77;0.33;;;;;;;6.62;100.00;153060.72;4994882;28;20440;-78
2023/01/11 04:54:15;;;;;;;0.90;0.50;;;;;;;6.70;100.00;153081.38;5001616;28;20578;-77
2023/01/11 04:57:00;;;;;;;1.10;0.70;;;;;;;6.66;100.00;153071.06;4989529;28;20440;-77
2023/01/11 04:59:48;;;;;;;1.00;0.40;;;;;;;6.71;100.00;153085.28;4993602;28;20576;-77
2023/01/11 05:02:33;;;;;;;0.60;0.30;;;;;;;6.73;100.00;153089.13;4993500;28;20452;-77
2023/01/11 05:05:19;;;;;;;0.70;0.40;;;;;;;6.72;100.00;153086.56;4993613;28;20449;-77
2023/01/11 05:08:04;;;;;;;1.93;0.47;;;;;;;6.68;100.00;153077.50;4986952;28;20449;-77
2023/01/11 05:10:52;;;;;;;0.70;0.40;;;;;;;6.64;100.00;153067.22;4984718;28;20457;-77
2023/01/11 05:13:44;;;;;;;0.73;0.30;;;;;;;6.72;100.00;153086.56;4998561;28;20577;-78
2023/01/11 05:16:30;;;;;;;0.90;0.40;;;;;;;6.70;100.00;153081.38;5011947;28;20440;-77
2023/01/11 05:19:15;;;;;;;0.63;0.30;;;;;;;6.71;100.00;153083.97;4992182;28;20433;-78
2023/01/11 05:22:01;;;;;;;0.73;0.30;;;;;;;6.72;100.00;153087.81;4994161;28;20513;-77
2023/01/11 05:24:46;;;;;;;1.50;0.53;;;;;;;6.71;100.00;153083.97;4991797;28;20465;-77
2023/01/11 05:27:32;;;;;;;0.90;0.50;;;;;;;6.72;100.00;153087.81;4992131;28;20445;-77
2023/01/11 05:30:17;;;;;;;0.90;0.30;;;;;;;6.72;100.00;153086.56;4990053;28;20837;-77
2023/01/11 05:33:04;;;;;;;0.70;0.40;;;;;;;6.72;100.00;153086.56;4992458;28;20428;-78
2023/01/11 05:35:49;;;;;;;0.80;0.30;;;;;;;6.75;100.00;153094.31;4985110;28;20493;-78
2023/01/11 05:38:35;;;;;;;0.90;0.50;;;;;;;6.74;100.00;153091.72;5007617;28;20461;-77
2023/01/11 05:41:22;;;;;;;1.00;0.50;;;;;;;6.71;100.00;153085.28;5005843;28;20533;-77
2023/01/11 05:47:12;;;;;;;0.97;0.60;;;;;;;6.68;100.00;153076.22;4992381;28;20481;-77
2023/01/11 05:49:58;;;;;;;0.90;0.53;;;;;;;6.72;100.00;153086.56;4988301;28;21011;-77
2023/01/11 05:52:44;;;;;;;1.40;0.50;;;;;;;6.73;100.00;153090.41;4990090;28;20729;-77
2023/01/11 05:55:29;;;;;;;0.80;0.40;;;;;;;6.70;100.00;153081.38;4994201;28;20452;-77
2023/01/11 05:58:14;;;;;;;0.83;0.53;;;;;;;6.71;100.00;153083.97;4993662;28;20431;-77
2023/01/11 06:01:00;;;;;;;2.00;0.60;;;;;;;6.72;100.00;153086.56;4974240;28;20566;-77
2023/01/11 06:03:45;;;;;;;0.80;0.47;;;;;;;6.66;100.00;153072.38;4999144;28;20464;-78
2023/01/11 06:06:32;;;;;;;1.10;0.50;;;;;;;6.75;100.00;153094.31;4984624;28;20445;-78
2023/01/11 06:09:17;;;;;;;0.90;0.40;;;;;;;6.73;100.00;153089.13;4982769;28;20457;-77
2023/01/11 06:12:03;;;;;;;1.20;0.47;;;;;;;6.70;100.00;153082.66;4984780;28;20517;-77
2023/01/11 06:14:48;;;;;;;0.80;0.50;;;;;;;6.67;100.00;153074.91;4984125;28;21026;-77
2023/01/11 06:17:33;;;;;;;0.90;0.50;;;;;;;6.64;100.00;153067.22;4978643;28;20585;-77
2023/01/11 06:20:19;;;;;;;1.37;0.60;;;;;;;6.70;100.00;153081.38;4983850;28;20565;-78
2023/01/11 06:23:05;;;;;;;1.40;0.90;;;;;;;6.72;100.00;153086.56;4982766;28;20567;-78
2023/01/11 06:25:51;;;;;;;1.03;0.63;;;;;;;6.77;100.00;153099.47;4983871;28;20821;-77
2023/01/11 06:28:37;;;;;;;1.17;0.60;;;;;;;6.80;100.00;153107.22;4980734;28;20568;-78
2023/01/11 06:31:22;;;;;;;1.03;0.40;;;;;;;6.80;100.00;153105.91;4982836;28;20458;-78
2023/01/11 06:34:07;;;;;;;1.50;1.20;;;;;;;6.71;100.00;153085.28;4979563;28;20453;-77
2023/01/11 06:36:53;;;;;;;1.00;0.60;;;;;;;6.69;100.00;153080.13;4983790;28;20455;-77
2023/01/11 06:39:40;;;;;;;1.10;0.70;;;;;;;6.73;100.00;153089.13;4995189;28;20455;-78
2023/01/11 06:42:25;;;;;;;1.43;1.27;;;;;;;6.73;100.00;153090.41;4979858;28;20442;-77
2023/01/11 06:45:11;;;;;;;1.00;0.70;;;;;;;6.64;100.00;153067.22;4986487;28;20511;-77
2023/01/11 06:47:57;;;;;;;0.97;0.77;;;;;;;6.69;100.00;153078.81;4982409;28;20520;-77
2023/01/11 06:50:42;;;;;;;1.47;0.80;;;;;;;6.71;100.00;153085.28;4981862;28;20605;-77
2023/01/11 06:53:28;;;;;;;1.27;0.73;;;;;;;6.71;100.00;153085.28;4986150;28;20496;-78
2023/01/11 06:56:17;;;;;;;4.07;0.80;;;;;;;6.71;100.00;153085.28;4980567;28;20602;-77
2023/01/11 06:59:03;;;;;;;1.00;0.60;;;;;;;6.79;100.00;153104.63;4980838;28;20441;-78
2023/01/11 07:01:48;;;;;;;1.37;0.70;;;;;;;6.75;100.00;153095.56;4983998;28;20465;-78
2023/01/11 07:04:34;;;;;;;1.17;0.90;;;;;;;6.75;100.00;153094.31;4979797;28;20481;-77
2023/01/11 07:07:19;;;;;;;0.90;0.57;;;;;;;6.81;100.00;153109.78;4980506;28;20925;-77
2023/01/11 07:10:06;;;;;;;1.10;0.60;;;;;;;6.85;100.00;153120.13;4982834;28;20584;-78
2023/01/11 07:12:53;;;;;;;1.23;0.90;;;;;;;6.83;100.00;153114.94;4981036;28;20454;-77
2023/01/11 07:15:38;;;;;;;2.00;0.50;;;;;;;6.85;100.00;153120.13;4981542;28;20452;-77
2023/01/11 07:18:24;;;;;;;1.37;0.70;;;;;;;6.90;100.00;153133.03;4980105;28;20445;-77
2023/01/11 07:21:09;;;;;;;1.03;0.67;;;;;;;6.92;100.00;153138.19;4993057;28;20476;-77
2023/01/11 07:23:55;;;;;;;1.67;0.80;;;;;;;6.93;100.00;153140.78;4978165;28;20469;-77
2023/01/11 07:26:41;;;;;;;0.83;0.53;;;;;;;6.96;100.00;153148.53;4981933;28;20458;-77
2023/01/11 07:29:28;;;;;;;1.13;0.63;;;;;;;7.03;100.00;153166.59;4978877;28;20788;-77
2023/01/11 07:32:13;;;;;;;0.80;0.50;;;;;;;7.01;100.00;153160.13;4982148;28;20457;-77
2023/01/11 07:34:58;;;;;;;1.40;0.80;;;;;;;7.08;100.00;153178.19;4980722;28;21173;-77
2023/01/11 07:37:45;;;;;;;1.00;0.77;;;;;;;7.04;100.00;153169.16;4992435;28;20493;-77
2023/01/11 07:40:30;;;;;;;0.93;0.53;;;;;;;7.12;100.00;153188.56;4979838;28;20588;-77
2023/01/11 07:43:17;;;;;;;2.70;1.03;;;;;;;7.17;100.00;153201.47;4977405;28;20485;-83
2023/01/11 07:46:04;;;;;;;1.10;0.50;;;;;;;7.23;100.00;153216.91;4980303;28;20464;-83
2023/01/11 07:48:49;;;;;;;1.13;0.63;;;;;;;7.29;100.00;153233.72;4981956;28;20440;-83
2023/01/11 07:51:34;;;;;;;0.90;0.50;;;;;;;7.26;100.00;153224.66;4979793;28;20795;-83
2023/01/11 07:54:20;;;;;;;0.80;0.40;;;;;;;7.35;100.00;153247.94;4980791;28;20454;-83
2023/01/11 07:57:05;;;;;;;0.90;0.60;;;;;;;7.43;100.00;153267.31;4990601;28;20462;-83
2023/01/11 07:59:51;;;;;;;1.30;0.50;;;;;;;7.42;100.00;153264.69;4983048;28;20473;-83
2023/01/11 08:02:37;;;;;;;0.90;0.47;;;;;;;7.45;100.00;153272.47;4994927;28;20953;-83
2023/01/11 08:05:23;;;;;;;0.80;0.43;;;;;;;7.58;100.00;153306.03;4979949;28;20644;-83
2023/01/11 08:08:09;;;;;;;1.13;0.60;;;;;;;7.57;100.00;153304.72;4978162;28;20572;-83
2023/01/11 08:17:01;;;;;;;1.73;0.60;;;;;;;7.66;100.00;153326.72;4979865;28;20958;-83
2023/01/11 08:19:47;;;;;;;1.00;0.53;;;;;;;7.79;100.00;153360.28;4982775;28;20469;-83
2023/01/11 08:22:33;;;;;;;0.90;0.57;;;;;;;7.80;100.00;153362.88;4981377;28;20449;-83
2023/01/11 08:25:18;;;;;;;1.30;0.70;;;;;;;7.81;100.00;153365.50;4992661;28;21040;-83
2023/01/11 08:28:06;;;;;;;1.00;0.70;;;;;;;7.85;100.00;153377.09;4982179;28;20452;-83
2023/01/11 08:30:51;;;;;;;1.53;0.40;;;;;;;7.78;100.00;153358.97;4981425;28;20452;-82
2023/01/11 08:33:36;;;;;;;1.00;0.70;;;;;;;7.88;100.00;153383.56;5003295;28;20458;-83
2023/01/11 08:36:26;;;;;;;0.90;0.50;;;;;;;7.83;100.00;153370.66;4999084;28;20475;-83
2023/01/11 08:39:14;;;;;;;1.00;0.50;;;;;;;7.88;100.00;153383.56;4988966;28;20803;-84
2023/01/11 08:42:01;;;;;;;0.93;0.50;;;;;;;7.96;100.00;153404.22;4996037;28;20456;-83
2023/01/11 08:44:47;;;;;;;0.80;0.40;;;;;;;8.11;100.00;153443.00;4985538;28;20485;-83
2023/01/11 08:47:32;;;;;;;1.03;0.50;;;;;;;8.14;100.00;153449.44;4985988;28;20521;-83
2023/01/11 08:50:18;;;;;;;1.00;0.50;;;;;;;8.17;100.00;153458.50;4989658;28;20922;-83
2023/01/11 08:53:06;;;;;;;1.00;0.50;;;;;;;8.24;100.00;153476.59;4985326;28;20466;-84
2023/01/11 08:55:52;;;;;;;1.00;0.50;;;;;;;8.30;100.00;153492.16;4980856;28;20453;-83
2023/01/11 08:58:38;;;;;;;1.03;0.63;;;;;;;8.34;100.00;153501.22;4985549;28;20430;-83
2023/01/11 09:01:23;;;;;;;1.00;0.67;;;;;;;8.38;100.00;153511.53;4983131;28;20452;-83
2023/01/11 09:04:09;;;;;;;2.07;0.60;;;;;;;8.39;100.00;153515.38;4982266;28;20502;-83
2023/01/11 09:06:54;;;;;;;1.20;0.50;;;;;;;8.32;100.00;153497.31;4982762;28;20436;-83
2023/01/11 09:09:41;;;;;;;1.40;0.60;;;;;;;8.30;100.00;153492.16;4997154;28;20565;-83
2023/01/11 09:12:26;;;;;;;3.53;0.60;;;;;;;8.30;100.00;153492.16;4982166;28;20952;-83
2023/01/11 09:15:12;;;;;;;0.80;0.50;;;;;;;8.35;100.00;153505.06;4983921;28;21083;-83
2023/01/11 09:17:57;;;;;;;1.37;0.80;;;;;;;8.40;100.00;153518.00;4996842;28;20842;-83
2023/01/11 09:20:45;;;;;;;1.10;0.60;;;;;;;8.49;100.00;153541.28;4982915;28;20462;-83
2023/01/11 09:23:30;;;;;;;0.90;0.60;;;;;;;8.55;100.00;153556.75;4983386;28;20607;-83
2023/01/11 09:26:16;;;;;;;1.83;1.10;;;;;;;8.54;100.00;153554.19;4994443;28;20466;-83
2023/01/11 09:29:01;;;;;;;0.90;0.43;;;;;;;8.68;100.00;153587.81;4982630;28;20447;-83
2023/01/11 09:31:47;;;;;;;1.10;0.73;;;;;;;8.65;100.00;153580.03;4982069;28;20452;-83
2023/01/11 09:34:33;;;;;;;2.17;0.87;;;;;;;8.63;100.00;153576.13;4984408;28;20539;-83
2023/01/11 09:37:22;;;;;;;1.17;0.63;;;;;;;8.62;100.00;153572.28;4981651;28;20451;-83
2023/01/11 09:40:13;;;;;;;1.43;0.60;;;;;;;8.71;100.00;153595.56;4981947;28;20901;-83
2023/01/11 09:43:03;;;;;;;1.20;0.60;;;;;;;8.72;100.00;153598.13;4994941;28;20977;-83
2023/01/11 09:45:51;;;;;;;1.70;0.70;;;;;;;8.69;100.00;153590.38;4994086;28;20486;-83
2023/01/11 09:48:39;;;;;;;1.40;0.53;;;;;;;8.73;100.00;153602.03;4983343;28;20446;-83
2023/01/11 09:51:29;;;;;;;1.77;0.50;;;;;;;8.70;100.00;153592.97;4996444;28;20566;-83
2023/01/11 09:54:18;;;;;;;0.90;0.40;;;;;;;8.75;100.00;153607.19;4993415;28;20551;-83
2023/01/11 09:57:11;;;;;;;2.50;2.00;;;;;;;8.77;100.00;153612.34;4982794;28;20571;-83
2023/01/11 10:00:05;;;;;;;3.53;2.60;;;;;;;8.73;100.00;153600.72;4982281;28;20593;-83
2023/01/11 10:03:04;;;;;;;2.13;1.67;;;;;;;8.79;100.00;153616.25;4994831;28;20442;-83
2023/01/11 10:06:01;;;;;;;2.20;1.60;;;;;;;8.80;100.00;153618.81;4981401;28;20473;-83
2023/01/11 10:09:02;;;;;;;2.20;1.40;;;;;;;8.85;100.00;153633.03;4982359;28;20942;-83
2023/01/11 10:11:57;;;;;;;2.63;2.10;;;;;;;8.80;100.00;153618.81;4981274;28;20537;-83
2023/01/11 10:14:54;;;;;;;2.77;2.13;;;;;;;8.86;100.00;153634.34;4989071;28;21036;-83
2023/01/11 10:17:49;;;;;;;2.00;1.40;;;;;;;8.93;100.00;153652.44;4980765;28;20442;-83
2023/01/11 10:20:39;;;;;;;2.10;1.40;;;;;;;8.94;100.00;153655.03;4982409;28;20795;-83
2023/01/11 10:23:30;;;;;;;1.97;1.40;;;;;;;8.95;100.00;153657.59;4981381;28;20601;-83
2023/01/11 10:26:26;;;;;;;1.70;1.17;;;;;;;8.93;100.00;153652.44;4982964;28;20966;-83
2023/01/11 10:29:37;;;;;;;1.33;0.83;;;;;;;8.99;100.00;153667.97;4982302;28;20445;-83
2023/01/11 10:32:51;;;;;;;1.67;0.93;;;;;;;8.93;100.00;153652.44;4993150;28;20561;-83
2023/01/11 10:36:01;;;;;;;1.47;0.80;;;;;;;9.05;100.00;153684.75;4983310;28;20616;-83
2023/01/11 10:39:02;;;;;;;2.40;1.20;;;;;;;9.04;100.00;153680.88;4981086;28;20454;-83
2023/01/11 10:41:55;;;;;;;1.20;0.83;;;;;;;9.06;100.00;153686.06;4986459;28;20477;-83
2023/01/11 10:44:46;;;;;;;2.70;1.47;;;;;;;9.09;100.00;153693.81;4984140;28;20621;-83
2023/01/11 10:47:36;;;;;;;2.07;0.90;;;;;;;9.09;100.00;153695.13;4983530;28;20564;-83
2023/01/11 10:50:25;;;;;;;1.60;0.50;;;;;;;9.14;100.00;153706.75;5002595;28;21092;-82
2023/01/11 10:53:17;;;;;;;1.63;1.07;;;;;;;9.14;100.00;153706.75;4989293;28;20447;-83
2023/01/11 10:56:11;;;;;;;1.20;0.80;;;;;;;9.16;100.00;153713.22;4984558;28;20786;-83
2023/01/11 10:59:06;;;;;;;2.17;1.50;;;;;;;9.18;100.00;153718.41;4981861;28;20473;-83
2023/01/11 11:01:57;;;;;;;3.10;2.00;;;;;;;9.25;100.00;153735.22;4979702;28;20508;-83
2023/01/11 11:04:56;;;;;;;6.93;2.10;;;;;;;9.27;100.00;153740.38;4981118;28;21038;-83
2023/01/11 11:07:50;;;;;;;2.80;2.20;;;;;;;9.29;100.00;153745.59;4983643;28;20954;-83
2023/01/11 11:10:41;;;;;;;2.50;1.40;;;;;;;9.29;100.00;153744.28;4980255;28;20478;-83
2023/01/11 11:13:37;;;;;;;2.50;1.33;;;;;;;9.34;100.00;153757.22;4980823;28;20443;-83
2023/01/11 11:16:38;;;;;;;2.63;1.47;;;;;;;9.35;100.00;153761.06;4981647;28;20961;-83
2023/01/11 11:19:27;;;;;;;1.27;1.10;;;;;;;9.31;100.00;153750.75;4978369;28;20449;-83
2023/01/11 11:22:13;;;;;;;2.40;1.50;;;;;;;9.37;100.00;153764.97;4979813;28;20457;-83
2023/01/11 11:25:00;;;;;;;1.77;1.10;;;;;;;9.40;100.00;153774.00;4978001;28;20533;-83
2023/01/11 11:27:49;;;;;;;2.03;1.57;;;;;;;9.39;100.00;153771.44;4995340;28;20578;-83
2023/01/11 11:30:37;;;;;;;1.77;1.20;;;;;;;9.36;100.00;153763.66;4980776;28;20557;-84
2023/01/11 11:33:24;;;;;;;2.80;1.90;;;;;;;9.35;100.00;153759.75;4980661;28;20435;-83
2023/01/11 11:36:12;;;;;;;2.93;2.07;;;;;;;9.38;100.00;153767.53;4981669;28;20617;-83
2023/01/11 11:39:04;;;;;;;1.63;1.23;;;;;;;9.45;100.00;153786.94;4981479;28;20835;-83
2023/01/11 11:41:51;;;;;;;1.70;1.13;;;;;;;9.48;100.00;153794.69;4980988;28;20458;-84
2023/01/11 11:44:38;;;;;;;2.00;1.40;;;;;;;9.53;100.00;153806.38;4979626;28;20512;-84
2023/01/11 11:47:23;;;;;;;1.30;0.90;;;;;;;9.59;100.00;153821.88;4980582;28;20446;-84
2023/01/11 11:50:23;;;;;;;2.00;1.10;;;;;;;9.64;100.00;153836.09;4982425;28;20461;-83
2023/01/11 11:53:08;;;;;;;1.10;0.87;;;;;;;9.67;100.00;153843.88;4979987;28;20459;-84
2023/01/11 11:55:53;;;;;;;1.40;0.70;;;;;;;9.68;100.00;153846.47;4980750;28;20454;-84
2023/01/11 11:58:40;;;;;;;1.30;0.73;;;;;;;9.67;100.00;153842.56;4985572;28;20539;-84
2023/01/11 12:01:28;;;;;;;1.33;0.87;;;;;;;9.71;100.00;153854.25;4982415;28;20510;-84
2023/01/11 12:04:16;;;;;;;1.53;1.03;;;;;;;9.66;100.00;153841.25;4982656;28;20549;-84
2023/01/11 12:07:07;;;;;;;2.03;1.00;;;;;;;9.65;100.00;153838.72;4982100;28;20524;-84
2023/01/11 12:09:57;;;;;;;2.03;1.37;;;;;;;9.69;100.00;153849.03;4981339;28;20982;-84
2023/01/11 12:12:51;;;;;;;1.20;0.97;;;;;;;9.67;100.00;153843.88;4979948;28;20437;-84
2023/01/11 12:15:36;;;;;;;1.70;0.90;;;;;;;9.65;100.00;153838.72;4979982;28;20808;-84
2023/01/11 12:18:25;;;;;;;1.27;0.80;;;;;;;9.62;100.00;153830.94;4985051;28;20443;-84
2023/01/11 12:21:22;;;;;;;1.67;1.10;;;;;;;9.64;100.00;153836.09;4983962;28;20459;-84
2023/01/11 12:24:10;;;;;;;0.90;0.60;;;;;;;9.59;100.00;153823.16;4982241;28;20945;-84
2023/01/11 12:27:06;;;;;;;5.17;3.00;;;;;;;9.63;100.00;153833.53;4983639;28;20459;-84
2023/01/11 12:30:13;;;;;;;1.50;1.20;;;;;;;9.60;100.00;153825.78;4998085;28;20465;-84
2023/01/11 12:33:12;;;;;;;1.30;0.80;;;;;;;9.60;100.00;153825.78;4985961;28;20438;-84
2023/01/11 12:36:04;;;;;;;3.23;1.10;;;;;;;9.60;100.00;153825.78;4983338;28;20485;-84
2023/01/11 12:38:56;;;;;;;1.43;0.87;;;;;;;9.65;100.00;153838.72;4996631;28;21000;-84
2023/01/11 12:41:52;;;;;;;2.30;1.20;;;;;;;9.64;100.00;153836.09;4981431;28;20784;-85
2023/01/11 12:44:45;;;;;;;1.50;1.03;;;;;;;9.66;100.00;153841.25;4982974;28;20474;-84
2023/01/11 12:47:50;;;;;;;1.37;1.03;;;;;;;9.72;100.00;153856.81;4981751;28;20445;-84
2023/01/11 12:50:40;;;;;;;4.33;1.10;;;;;;;9.72;100.00;153856.81;4997563;28;20466;-84
2023/01/11 12:53:37;;;;;;;1.63;1.40;;;;;;;9.71;100.00;153854.25;4983105;28;20686;-84
2023/01/11 12:56:36;;;;;;;1.70;0.90;;;;;;;9.74;100.00;153860.72;4996787;28;20439;-84
2023/01/11 12:59:35;;;;;;;1.27;0.83;;;;;;;9.67;100.00;153843.88;4982324;28;20897;-84
2023/01/11 13:02:31;;;;;;;2.17;1.00;;;;;;;9.72;100.00;153855.50;4982523;28;20782;-83
2023/01/11 13:05:23;;;;;;;1.40;1.03;;;;;;;9.60;100.00;153824.47;4984337;28;20482;-84
2023/01/11 13:08:13;;;;;;;1.87;1.13;;;;;;;9.58;100.00;153820.56;4983448;28;20622;-84
2023/01/11 13:11:04;;;;;;;1.43;0.90;;;;;;;9.55;100.00;153812.84;4982048;28;20457;-84
2023/01/11 13:13:55;;;;;;;1.20;0.90;;;;;;;9.51;100.00;153802.47;4983413;28;20445;-84
2023/01/11 13:16:45;;;;;;;2.57;1.40;;;;;;;9.53;100.00;153807.63;4985547;28;20968;-84
2023/01/11 13:19:36;;;;;;;2.43;1.53;;;;;;;9.57;100.00;153818.00;4982221;28;20450;-84
2023/01/11 13:22:23;;;;;;;1.10;0.90;;;;;;;9.55;100.00;153811.53;4984326;28;20442;-84
2023/01/11 13:25:15;;;;;;;2.23;1.50;;;;;;;9.59;100.00;153823.16;4983327;28;20557;-84